sensor_id;sensor_type;location;lat;lon;timestamp;P1;durP1;ratioP1;P2;durP2;ratioP2
32485;SDS011;18935;52.236;21.134;2022-08-19T00:01:26;18.08;;;13.48;;
32485;SDS011;18935;52.236;21.134;2022-08-19T00:03:54;20.38;;;12.18;;
32485;SDS011;18935;52.236;21.134;2022-08-19T00:06:19;25.42;;;12.65;;
32485;SDS011;18935;52.236;21.134;2022-08-19T00:08:45;18.40;;;13.50;;
32485;SDS011;18935;52.236;21.134;2022-08-19T00:11:10;18.15;;;13.13;;
32485;SDS011;18935;52.236;21.134;2022-08-19T00:13:36;23.63;;;13.43;;
32485;SDS011;18935;52.236;21.134;2022-08-19T00:16:02;25.95;;;14.07;;
32485;SDS011;18935;52.236;21.134;2022-08-19T00:18:28;27.67;;;13.50;;
32485;SDS011;18935;52.236;21.134;2022-08-19T00:20:54;22.03;;;13.07;;
32485;SDS011;18935;52.236;21.134;2022-08-19T00:23:19;22.05;;;14.15;;
32485;SDS011;18935;52.236;21.134;2022-08-19T00:25:44;20.70;;;13.30;;
32485;SDS011;18935;52.236;21.134;2022-08-19T00:28:10;17.85;;;13.20;;
32485;SDS011;18935;52.236;21.134;2022-08-19T00:30:36;17.85;;;14.32;;
32485;SDS011;18935;52.236;21.134;2022-08-19T00:33:01;21.52;;;14.13;;
32485;SDS011;18935;52.236;21.134;2022-08-19T00:35:27;19.67;;;13.45;;
32485;SDS011;18935;52.236;21.134;2022-08-19T00:37:52;29.60;;;14.07;;
32485;SDS011;18935;52.236;21.134;2022-08-19T00:40:18;19.70;;;13.73;;
32485;SDS011;18935;52.236;21.134;2022-08-19T00:42:44;17.02;;;13.88;;
32485;SDS011;18935;52.236;21.134;2022-08-19T00:45:12;19.02;;;14.40;;
32485;SDS011;18935;52.236;21.134;2022-08-19T00:47:41;21.23;;;14.18;;
32485;SDS011;18935;52.236;21.134;2022-08-19T00:50:07;19.60;;;14.25;;
32485;SDS011;18935;52.236;21.134;2022-08-19T00:52:35;23.27;;;14.70;;
32485;SDS011;18935;52.236;21.134;2022-08-19T00:55:05;20.95;;;14.55;;
32485;SDS011;18935;52.236;21.134;2022-08-19T00:57:36;22.52;;;15.00;;
32485;SDS011;18935;52.236;21.134;2022-08-19T01:00:09;19.55;;;13.95;;
32485;SDS011;18935;52.236;21.134;2022-08-19T01:02:37;25.40;;;14.10;;
32485;SDS011;18935;52.236;21.134;2022-08-19T01:05:05;22.70;;;14.95;;
32485;SDS011;18935;52.236;21.134;2022-08-19T01:07:33;26.45;;;14.00;;
32485;SDS011;18935;52.236;21.134;2022-08-19T01:09:59;21.67;;;14.77;;
32485;SDS011;18935;52.236;21.134;2022-08-19T01:12:25;21.67;;;15.32;;
32485;SDS011;18935;52.236;21.134;2022-08-19T01:14:50;20.80;;;14.48;;
32485;SDS011;18935;52.236;21.134;2022-08-19T01:17:17;23.67;;;15.02;;
32485;SDS011;18935;52.236;21.134;2022-08-19T01:19:44;20.50;;;14.65;;
32485;SDS011;18935;52.236;21.134;2022-08-19T01:22:16;19.10;;;15.20;;
32485;SDS011;18935;52.236;21.134;2022-08-19T01:24:52;21.45;;;14.27;;
32485;SDS011;18935;52.236;21.134;2022-08-19T01:27:17;22.70;;;15.32;;
32485;SDS011;18935;52.236;21.134;2022-08-19T01:29:42;21.02;;;14.63;;
32485;SDS011;18935;52.236;21.134;2022-08-19T01:32:11;22.95;;;15.25;;
32485;SDS011;18935;52.236;21.134;2022-08-19T01:34:38;21.37;;;14.10;;
32485;SDS011;18935;52.236;21.134;2022-08-19T01:37:08;18.75;;;14.38;;
32485;SDS011;18935;52.236;21.134;2022-08-19T01:39:36;19.63;;;15.27;;
32485;SDS011;18935;52.236;21.134;2022-08-19T01:42:03;18.83;;;14.27;;
32485;SDS011;18935;52.236;21.134;2022-08-19T01:44:29;21.08;;;14.23;;
32485;SDS011;18935;52.236;21.134;2022-08-19T01:46:54;20.38;;;13.93;;
32485;SDS011;18935;52.236;21.134;2022-08-19T01:49:20;20.67;;;15.03;;
32485;SDS011;18935;52.236;21.134;2022-08-19T01:51:48;26.23;;;14.50;;
32485;SDS011;18935;52.236;21.134;2022-08-19T01:54:14;17.80;;;14.65;;
32485;SDS011;18935;52.236;21.134;2022-08-19T01:56:41;17.98;;;13.85;;
32485;SDS011;18935;52.236;21.134;2022-08-19T01:59:09;27.13;;;14.63;;
32485;SDS011;18935;52.236;21.134;2022-08-19T02:01:37;22.60;;;15.15;;
32485;SDS011;18935;52.236;21.134;2022-08-19T02:04:02;21.87;;;14.90;;
32485;SDS011;18935;52.236;21.134;2022-08-19T02:06:28;25.52;;;13.88;;
32485;SDS011;18935;52.236;21.134;2022-08-19T02:08:54;23.70;;;14.02;;
32485;SDS011;18935;52.236;21.134;2022-08-19T02:11:27;21.42;;;13.60;;
32485;SDS011;18935;52.236;21.134;2022-08-19T02:13:56;19.60;;;13.80;;
32485;SDS011;18935;52.236;21.134;2022-08-19T02:16:23;22.05;;;14.07;;
32485;SDS011;18935;52.236;21.134;2022-08-19T02:18:49;21.17;;;13.90;;
32485;SDS011;18935;52.236;21.134;2022-08-19T02:21:15;21.55;;;13.85;;
32485;SDS011;18935;52.236;21.134;2022-08-19T02:23:42;15.70;;;13.25;;
32485;SDS011;18935;52.236;21.134;2022-08-19T02:26:08;23.48;;;13.38;;
32485;SDS011;18935;52.236;21.134;2022-08-19T02:28:33;16.73;;;14.18;;
32485;SDS011;18935;52.236;21.134;2022-08-19T02:30:59;22.92;;;14.15;;
32485;SDS011;18935;52.236;21.134;2022-08-19T02:33:25;20.40;;;14.10;;
32485;SDS011;18935;52.236;21.134;2022-08-19T02:35:51;17.83;;;13.68;;
32485;SDS011;18935;52.236;21.134;2022-08-19T02:38:16;19.60;;;13.65;;
32485;SDS011;18935;52.236;21.134;2022-08-19T02:40:58;22.95;;;13.27;;
32485;SDS011;18935;52.236;21.134;2022-08-19T02:43:26;19.13;;;14.15;;
32485;SDS011;18935;52.236;21.134;2022-08-19T02:45:52;19.25;;;13.27;;
32485;SDS011;18935;52.236;21.134;2022-08-19T02:48:18;22.20;;;13.55;;
32485;SDS011;18935;52.236;21.134;2022-08-19T02:50:45;19.92;;;13.48;;
32485;SDS011;18935;52.236;21.134;2022-08-19T02:53:11;19.02;;;13.45;;
32485;SDS011;18935;52.236;21.134;2022-08-19T02:55:42;22.92;;;13.20;;
32485;SDS011;18935;52.236;21.134;2022-08-19T02:58:09;20.02;;;12.95;;
32485;SDS011;18935;52.236;21.134;2022-08-19T03:00:34;21.13;;;13.27;;
32485;SDS011;18935;52.236;21.134;2022-08-19T03:02:59;21.83;;;13.67;;
32485;SDS011;18935;52.236;21.134;2022-08-19T03:05:25;22.98;;;14.52;;
32485;SDS011;18935;52.236;21.134;2022-08-19T03:07:50;20.23;;;13.65;;
32485;SDS011;18935;52.236;21.134;2022-08-19T03:10:16;19.57;;;14.70;;
32485;SDS011;18935;52.236;21.134;2022-08-19T03:12:41;23.52;;;14.27;;
32485;SDS011;18935;52.236;21.134;2022-08-19T03:15:07;17.37;;;13.77;;
32485;SDS011;18935;52.236;21.134;2022-08-19T03:17:33;20.27;;;13.77;;
32485;SDS011;18935;52.236;21.134;2022-08-19T03:19:59;24.60;;;14.20;;
32485;SDS011;18935;52.236;21.134;2022-08-19T03:22:24;20.83;;;13.98;;
32485;SDS011;18935;52.236;21.134;2022-08-19T03:24:50;20.65;;;14.35;;
32485;SDS011;18935;52.236;21.134;2022-08-19T03:27:15;21.83;;;14.43;;
32485;SDS011;18935;52.236;21.134;2022-08-19T03:29:42;21.98;;;13.55;;
32485;SDS011;18935;52.236;21.134;2022-08-19T03:32:08;22.42;;;13.63;;
32485;SDS011;18935;52.236;21.134;2022-08-19T03:34:34;21.88;;;14.02;;
32485;SDS011;18935;52.236;21.134;2022-08-19T03:37:06;18.60;;;13.43;;
32485;SDS011;18935;52.236;21.134;2022-08-19T03:39:33;24.83;;;14.05;;
32485;SDS011;18935;52.236;21.134;2022-08-19T03:42:01;25.98;;;13.82;;
32485;SDS011;18935;52.236;21.134;2022-08-19T03:44:28;21.13;;;13.48;;
32485;SDS011;18935;52.236;21.134;2022-08-19T03:46:55;21.17;;;14.60;;
32485;SDS011;18935;52.236;21.134;2022-08-19T03:49:23;20.45;;;13.10;;
32485;SDS011;18935;52.236;21.134;2022-08-19T03:51:50;22.48;;;14.43;;
32485;SDS011;18935;52.236;21.134;2022-08-19T03:54:17;21.77;;;15.52;;
32485;SDS011;18935;52.236;21.134;2022-08-19T03:56:45;20.88;;;14.70;;
32485;SDS011;18935;52.236;21.134;2022-08-19T03:59:13;24.33;;;15.20;;
32485;SDS011;18935;52.236;21.134;2022-08-19T04:01:42;22.40;;;15.32;;
32485;SDS011;18935;52.236;21.134;2022-08-19T04:04:07;22.10;;;14.18;;
32485;SDS011;18935;52.236;21.134;2022-08-19T04:06:34;22.88;;;13.68;;
32485;SDS011;18935;52.236;21.134;2022-08-19T04:09:03;23.42;;;13.88;;
32485;SDS011;18935;52.236;21.134;2022-08-19T04:11:31;24.60;;;13.95;;
32485;SDS011;18935;52.236;21.134;2022-08-19T04:14:00;20.52;;;14.50;;
32485;SDS011;18935;52.236;21.134;2022-08-19T04:16:26;25.45;;;14.60;;
32485;SDS011;18935;52.236;21.134;2022-08-19T04:18:53;18.83;;;13.68;;
32485;SDS011;18935;52.236;21.134;2022-08-19T04:21:22;19.30;;;14.32;;
32485;SDS011;18935;52.236;21.134;2022-08-19T04:23:49;24.40;;;14.00;;
32485;SDS011;18935;52.236;21.134;2022-08-19T04:26:29;19.00;;;14.07;;
32485;SDS011;18935;52.236;21.134;2022-08-19T04:29:00;20.85;;;13.40;;
32485;SDS011;18935;52.236;21.134;2022-08-19T04:31:28;22.75;;;13.68;;
32485;SDS011;18935;52.236;21.134;2022-08-19T04:33:58;20.17;;;12.88;;
32485;SDS011;18935;52.236;21.134;2022-08-19T04:36:27;22.15;;;13.68;;
32485;SDS011;18935;52.236;21.134;2022-08-19T04:38:56;19.92;;;13.57;;
32485;SDS011;18935;52.236;21.134;2022-08-19T04:41:24;19.25;;;12.45;;
32485;SDS011;18935;52.236;21.134;2022-08-19T04:44:08;17.65;;;12.15;;
32485;SDS011;18935;52.236;21.134;2022-08-19T04:46:34;22.83;;;13.05;;
32485;SDS011;18935;52.236;21.134;2022-08-19T04:49:00;18.70;;;12.40;;
32485;SDS011;18935;52.236;21.134;2022-08-19T04:51:26;22.45;;;12.30;;
32485;SDS011;18935;52.236;21.134;2022-08-19T04:53:52;16.65;;;13.27;;
32485;SDS011;18935;52.236;21.134;2022-08-19T04:56:18;17.60;;;12.32;;
32485;SDS011;18935;52.236;21.134;2022-08-19T04:58:46;20.65;;;12.00;;
32485;SDS011;18935;52.236;21.134;2022-08-19T05:01:17;18.35;;;12.35;;
32485;SDS011;18935;52.236;21.134;2022-08-19T05:03:44;17.15;;;11.73;;
32485;SDS011;18935;52.236;21.134;2022-08-19T05:06:12;20.30;;;11.73;;
32485;SDS011;18935;52.236;21.134;2022-08-19T05:08:39;21.58;;;11.35;;
32485;SDS011;18935;52.236;21.134;2022-08-19T05:11:26;20.17;;;11.40;;
32485;SDS011;18935;52.236;21.134;2022-08-19T05:13:54;21.08;;;11.68;;
32485;SDS011;18935;52.236;21.134;2022-08-19T05:16:21;25.35;;;11.77;;
32485;SDS011;18935;52.236;21.134;2022-08-19T05:18:47;19.73;;;11.05;;
32485;SDS011;18935;52.236;21.134;2022-08-19T05:21:32;18.02;;;10.70;;
32485;SDS011;18935;52.236;21.134;2022-08-19T05:24:18;23.55;;;11.15;;
32485;SDS011;18935;52.236;21.134;2022-08-19T05:26:46;19.98;;;11.30;;
32485;SDS011;18935;52.236;21.134;2022-08-19T05:29:17;30.45;;;11.65;;
32485;SDS011;18935;52.236;21.134;2022-08-19T05:31:44;23.90;;;10.40;;
32485;SDS011;18935;52.236;21.134;2022-08-19T05:34:10;23.30;;;10.43;;
32485;SDS011;18935;52.236;21.134;2022-08-19T05:36:36;16.33;;;10.27;;
32485;SDS011;18935;52.236;21.134;2022-08-19T05:39:04;15.30;;;10.07;;
32485;SDS011;18935;52.236;21.134;2022-08-19T05:41:31;31.40;;;10.93;;
32485;SDS011;18935;52.236;21.134;2022-08-19T05:43:57;20.35;;;11.48;;
32485;SDS011;18935;52.236;21.134;2022-08-19T05:46:25;20.55;;;9.80;;
32485;SDS011;18935;52.236;21.134;2022-08-19T05:48:51;18.53;;;10.67;;
32485;SDS011;18935;52.236;21.134;2022-08-19T05:51:16;16.50;;;9.45;;
32485;SDS011;18935;52.236;21.134;2022-08-19T05:53:42;20.98;;;10.13;;
32485;SDS011;18935;52.236;21.134;2022-08-19T05:56:11;16.77;;;9.55;;
32485;SDS011;18935;52.236;21.134;2022-08-19T05:58:38;19.15;;;9.68;;
32485;SDS011;18935;52.236;21.134;2022-08-19T06:01:08;18.25;;;9.57;;
32485;SDS011;18935;52.236;21.134;2022-08-19T06:03:35;18.58;;;9.15;;
32485;SDS011;18935;52.236;21.134;2022-08-19T06:06:02;18.02;;;8.52;;
32485;SDS011;18935;52.236;21.134;2022-08-19T06:08:29;22.42;;;8.73;;
32485;SDS011;18935;52.236;21.134;2022-08-19T06:11:15;21.48;;;9.32;;
32485;SDS011;18935;52.236;21.134;2022-08-19T06:13:40;21.13;;;9.07;;
32485;SDS011;18935;52.236;21.134;2022-08-19T06:16:06;17.27;;;8.75;;
32485;SDS011;18935;52.236;21.134;2022-08-19T06:18:31;15.47;;;7.93;;
32485;SDS011;18935;52.236;21.134;2022-08-19T06:20:58;18.92;;;8.70;;
32485;SDS011;18935;52.236;21.134;2022-08-19T06:23:23;20.87;;;9.03;;
32485;SDS011;18935;52.236;21.134;2022-08-19T06:25:48;12.68;;;8.23;;
32485;SDS011;18935;52.236;21.134;2022-08-19T06:28:14;15.95;;;7.65;;
32485;SDS011;18935;52.236;21.134;2022-08-19T06:30:39;11.43;;;8.93;;
32485;SDS011;18935;52.236;21.134;2022-08-19T06:33:04;16.40;;;9.03;;
32485;SDS011;18935;52.236;21.134;2022-08-19T06:35:29;12.60;;;8.73;;
32485;SDS011;18935;52.236;21.134;2022-08-19T06:37:55;16.67;;;9.07;;
32485;SDS011;18935;52.236;21.134;2022-08-19T06:40:20;17.35;;;8.80;;
32485;SDS011;18935;52.236;21.134;2022-08-19T06:42:46;16.25;;;8.57;;
32485;SDS011;18935;52.236;21.134;2022-08-19T06:45:12;22.15;;;9.30;;
32485;SDS011;18935;52.236;21.134;2022-08-19T06:47:37;12.75;;;8.70;;
32485;SDS011;18935;52.236;21.134;2022-08-19T06:50:03;16.42;;;8.50;;
32485;SDS011;18935;52.236;21.134;2022-08-19T06:52:32;18.52;;;8.80;;
32485;SDS011;18935;52.236;21.134;2022-08-19T06:54:59;12.60;;;8.40;;
32485;SDS011;18935;52.236;21.134;2022-08-19T06:57:26;13.23;;;8.75;;
32485;SDS011;18935;52.236;21.134;2022-08-19T06:59:52;22.65;;;8.88;;
32485;SDS011;18935;52.236;21.134;2022-08-19T07:02:18;15.43;;;9.10;;
32485;SDS011;18935;52.236;21.134;2022-08-19T07:04:44;13.65;;;8.68;;
32485;SDS011;18935;52.236;21.134;2022-08-19T07:07:11;16.23;;;8.98;;
32485;SDS011;18935;52.236;21.134;2022-08-19T07:09:40;14.18;;;8.20;;
32485;SDS011;18935;52.236;21.134;2022-08-19T07:12:08;11.83;;;8.37;;
32485;SDS011;18935;52.236;21.134;2022-08-19T07:14:36;12.98;;;8.85;;
32485;SDS011;18935;52.236;21.134;2022-08-19T07:17:03;20.77;;;8.93;;
32485;SDS011;18935;52.236;21.134;2022-08-19T07:19:30;17.05;;;9.80;;
32485;SDS011;18935;52.236;21.134;2022-08-19T07:21:56;18.75;;;9.63;;
32485;SDS011;18935;52.236;21.134;2022-08-19T07:26:53;17.70;;;9.43;;
32485;SDS011;18935;52.236;21.134;2022-08-19T07:31:48;21.58;;;10.13;;
32485;SDS011;18935;52.236;21.134;2022-08-19T07:34:16;15.18;;;9.60;;
32485;SDS011;18935;52.236;21.134;2022-08-19T07:36:43;13.80;;;9.25;;
32485;SDS011;18935;52.236;21.134;2022-08-19T07:39:10;22.48;;;9.13;;
32485;SDS011;18935;52.236;21.134;2022-08-19T07:41:38;16.52;;;9.65;;
32485;SDS011;18935;52.236;21.134;2022-08-19T07:44:04;18.45;;;9.50;;
32485;SDS011;18935;52.236;21.134;2022-08-19T07:46:32;23.48;;;9.93;;
32485;SDS011;18935;52.236;21.134;2022-08-19T07:48:59;17.92;;;9.43;;
32485;SDS011;18935;52.236;21.134;2022-08-19T07:51:25;14.60;;;8.93;;
32485;SDS011;18935;52.236;21.134;2022-08-19T07:53:51;16.95;;;8.93;;
32485;SDS011;18935;52.236;21.134;2022-08-19T07:56:18;19.70;;;8.93;;
32485;SDS011;18935;52.236;21.134;2022-08-19T07:58:45;17.55;;;9.23;;
32485;SDS011;18935;52.236;21.134;2022-08-19T08:01:13;22.13;;;9.18;;
32485;SDS011;18935;52.236;21.134;2022-08-19T08:03:43;15.38;;;8.90;;
32485;SDS011;18935;52.236;21.134;2022-08-19T08:06:27;16.63;;;8.52;;
32485;SDS011;18935;52.236;21.134;2022-08-19T08:09:11;14.45;;;8.65;;
32485;SDS011;18935;52.236;21.134;2022-08-19T08:11:38;15.73;;;8.85;;
32485;SDS011;18935;52.236;21.134;2022-08-19T08:14:04;15.88;;;8.38;;
32485;SDS011;18935;52.236;21.134;2022-08-19T08:16:30;14.68;;;8.23;;
32485;SDS011;18935;52.236;21.134;2022-08-19T08:19:05;17.58;;;8.15;;
32485;SDS011;18935;52.236;21.134;2022-08-19T08:21:32;16.67;;;8.52;;
32485;SDS011;18935;52.236;21.134;2022-08-19T08:23:57;14.15;;;8.07;;
32485;SDS011;18935;52.236;21.134;2022-08-19T08:26:23;15.77;;;8.40;;
32485;SDS011;18935;52.236;21.134;2022-08-19T08:28:49;20.88;;;8.10;;
32485;SDS011;18935;52.236;21.134;2022-08-19T08:31:15;13.32;;;7.95;;
32485;SDS011;18935;52.236;21.134;2022-08-19T08:33:41;13.98;;;7.93;;
32485;SDS011;18935;52.236;21.134;2022-08-19T08:36:07;17.85;;;8.40;;
32485;SDS011;18935;52.236;21.134;2022-08-19T08:38:33;19.17;;;8.15;;
32485;SDS011;18935;52.236;21.134;2022-08-19T08:41:05;12.40;;;8.07;;
32485;SDS011;18935;52.236;21.134;2022-08-19T08:43:44;19.30;;;8.32;;
32485;SDS011;18935;52.236;21.134;2022-08-19T08:51:22;15.93;;;8.50;;
32485;SDS011;18935;52.236;21.134;2022-08-19T08:53:51;14.25;;;8.23;;
32485;SDS011;18935;52.236;21.134;2022-08-19T08:56:18;20.58;;;7.88;;
32485;SDS011;18935;52.236;21.134;2022-08-19T08:58:53;16.58;;;8.30;;
32485;SDS011;18935;52.236;21.134;2022-08-19T09:01:23;18.30;;;8.73;;
32485;SDS011;18935;52.236;21.134;2022-08-19T09:03:48;16.10;;;8.30;;
32485;SDS011;18935;52.236;21.134;2022-08-19T09:09:12;12.90;;;8.23;;
32485;SDS011;18935;52.236;21.134;2022-08-19T09:14:21;13.38;;;8.02;;
32485;SDS011;18935;52.236;21.134;2022-08-19T09:17:09;11.70;;;7.95;;
32485;SDS011;18935;52.236;21.134;2022-08-19T09:19:36;17.60;;;8.73;;
32485;SDS011;18935;52.236;21.134;2022-08-19T09:22:15;17.48;;;8.40;;
32485;SDS011;18935;52.236;21.134;2022-08-19T09:24:41;13.77;;;8.07;;
32485;SDS011;18935;52.236;21.134;2022-08-19T09:27:06;13.67;;;8.13;;
32485;SDS011;18935;52.236;21.134;2022-08-19T09:29:31;13.38;;;7.80;;
32485;SDS011;18935;52.236;21.134;2022-08-19T09:31:57;13.93;;;7.70;;
32485;SDS011;18935;52.236;21.134;2022-08-19T09:34:22;13.77;;;8.33;;
32485;SDS011;18935;52.236;21.134;2022-08-19T09:36:48;15.60;;;8.33;;
32485;SDS011;18935;52.236;21.134;2022-08-19T09:39:17;14.02;;;7.35;;
32485;SDS011;18935;52.236;21.134;2022-08-19T09:41:43;19.67;;;7.17;;
32485;SDS011;18935;52.236;21.134;2022-08-19T09:44:08;14.18;;;7.45;;
32485;SDS011;18935;52.236;21.134;2022-08-19T09:46:33;16.37;;;7.10;;
32485;SDS011;18935;52.236;21.134;2022-08-19T09:49:00;13.02;;;7.15;;
32485;SDS011;18935;52.236;21.134;2022-08-19T09:51:26;16.50;;;7.77;;
32485;SDS011;18935;52.236;21.134;2022-08-19T09:53:53;14.30;;;7.00;;
32485;SDS011;18935;52.236;21.134;2022-08-19T09:56:20;11.95;;;7.40;;
32485;SDS011;18935;52.236;21.134;2022-08-19T09:58:47;16.15;;;7.72;;
32485;SDS011;18935;52.236;21.134;2022-08-19T10:01:17;12.90;;;7.05;;
32485;SDS011;18935;52.236;21.134;2022-08-19T10:03:46;18.98;;;7.22;;
32485;SDS011;18935;52.236;21.134;2022-08-19T10:06:14;15.20;;;7.18;;
32485;SDS011;18935;52.236;21.134;2022-08-19T10:08:39;17.38;;;7.30;;
32485;SDS011;18935;52.236;21.134;2022-08-19T10:11:05;14.82;;;7.60;;
32485;SDS011;18935;52.236;21.134;2022-08-19T10:13:30;15.75;;;7.18;;
32485;SDS011;18935;52.236;21.134;2022-08-19T10:16:02;13.55;;;7.53;;
32485;SDS011;18935;52.236;21.134;2022-08-19T10:18:31;15.23;;;7.15;;
32485;SDS011;18935;52.236;21.134;2022-08-19T10:21:03;19.35;;;7.00;;
32485;SDS011;18935;52.236;21.134;2022-08-19T10:23:32;19.20;;;7.65;;
32485;SDS011;18935;52.236;21.134;2022-08-19T10:25:59;13.07;;;7.20;;
32485;SDS011;18935;52.236;21.134;2022-08-19T10:28:25;15.10;;;6.97;;
32485;SDS011;18935;52.236;21.134;2022-08-19T10:30:50;16.57;;;7.30;;
32485;SDS011;18935;52.236;21.134;2022-08-19T10:33:16;14.40;;;6.68;;
32485;SDS011;18935;52.236;21.134;2022-08-19T10:35:41;13.47;;;7.00;;
32485;SDS011;18935;52.236;21.134;2022-08-19T10:38:06;12.47;;;6.43;;
32485;SDS011;18935;52.236;21.134;2022-08-19T10:40:31;10.47;;;6.47;;
32485;SDS011;18935;52.236;21.134;2022-08-19T10:42:57;13.30;;;7.10;;
32485;SDS011;18935;52.236;21.134;2022-08-19T10:45:22;9.88;;;6.65;;
32485;SDS011;18935;52.236;21.134;2022-08-19T10:47:50;14.63;;;7.00;;
32485;SDS011;18935;52.236;21.134;2022-08-19T10:50:15;10.98;;;6.88;;
32485;SDS011;18935;52.236;21.134;2022-08-19T10:53:03;13.43;;;6.93;;
32485;SDS011;18935;52.236;21.134;2022-08-19T10:55:30;12.27;;;6.10;;
32485;SDS011;18935;52.236;21.134;2022-08-19T10:58:15;13.88;;;6.35;;
32485;SDS011;18935;52.236;21.134;2022-08-19T11:00:42;16.00;;;6.60;;
32485;SDS011;18935;52.236;21.134;2022-08-19T11:03:15;13.23;;;5.63;;
32485;SDS011;18935;52.236;21.134;2022-08-19T11:05:40;14.70;;;6.30;;
32485;SDS011;18935;52.236;21.134;2022-08-19T11:08:06;13.48;;;6.07;;
32485;SDS011;18935;52.236;21.134;2022-08-19T11:10:36;14.75;;;6.28;;
32485;SDS011;18935;52.236;21.134;2022-08-19T11:13:01;15.30;;;6.13;;
32485;SDS011;18935;52.236;21.134;2022-08-19T11:15:28;11.65;;;6.18;;
32485;SDS011;18935;52.236;21.134;2022-08-19T11:17:53;10.85;;;6.25;;
32485;SDS011;18935;52.236;21.134;2022-08-19T11:20:19;12.80;;;6.30;;
32485;SDS011;18935;52.236;21.134;2022-08-19T11:22:45;11.50;;;6.10;;
32485;SDS011;18935;52.236;21.134;2022-08-19T11:25:10;12.80;;;6.15;;
32485;SDS011;18935;52.236;21.134;2022-08-19T11:27:42;15.27;;;6.10;;
32485;SDS011;18935;52.236;21.134;2022-08-19T11:30:09;13.43;;;6.25;;
32485;SDS011;18935;52.236;21.134;2022-08-19T11:32:36;16.48;;;6.55;;
32485;SDS011;18935;52.236;21.134;2022-08-19T11:35:01;11.07;;;5.80;;
32485;SDS011;18935;52.236;21.134;2022-08-19T11:37:26;11.60;;;5.72;;
32485;SDS011;18935;52.236;21.134;2022-08-19T11:39:52;14.85;;;5.82;;
32485;SDS011;18935;52.236;21.134;2022-08-19T11:42:17;11.90;;;6.00;;
32485;SDS011;18935;52.236;21.134;2022-08-19T11:45:01;11.45;;;5.57;;
32485;SDS011;18935;52.236;21.134;2022-08-19T11:47:28;16.85;;;6.65;;
32485;SDS011;18935;52.236;21.134;2022-08-19T11:49:55;10.52;;;6.22;;
32485;SDS011;18935;52.236;21.134;2022-08-19T11:52:21;14.85;;;6.40;;
32485;SDS011;18935;52.236;21.134;2022-08-19T11:54:46;12.90;;;5.45;;
32485;SDS011;18935;52.236;21.134;2022-08-19T11:57:11;10.63;;;5.80;;
32485;SDS011;18935;52.236;21.134;2022-08-19T11:59:37;11.27;;;5.82;;
32485;SDS011;18935;52.236;21.134;2022-08-19T12:02:02;17.15;;;5.95;;
32485;SDS011;18935;52.236;21.134;2022-08-19T12:04:28;15.98;;;5.78;;
32485;SDS011;18935;52.236;21.134;2022-08-19T12:06:53;12.75;;;6.00;;
32485;SDS011;18935;52.236;21.134;2022-08-19T12:09:20;18.08;;;6.32;;
32485;SDS011;18935;52.236;21.134;2022-08-19T12:11:47;11.63;;;5.70;;
32485;SDS011;18935;52.236;21.134;2022-08-19T12:14:12;10.30;;;5.43;;
32485;SDS011;18935;52.236;21.134;2022-08-19T12:16:38;14.30;;;5.90;;
32485;SDS011;18935;52.236;21.134;2022-08-19T12:19:04;12.23;;;5.53;;
32485;SDS011;18935;52.236;21.134;2022-08-19T12:21:30;17.90;;;6.13;;
32485;SDS011;18935;52.236;21.134;2022-08-19T12:23:58;13.82;;;5.90;;
32485;SDS011;18935;52.236;21.134;2022-08-19T12:26:25;15.35;;;6.03;;
32485;SDS011;18935;52.236;21.134;2022-08-19T12:28:52;15.45;;;5.55;;
32485;SDS011;18935;52.236;21.134;2022-08-19T12:31:17;16.77;;;5.75;;
32485;SDS011;18935;52.236;21.134;2022-08-19T12:33:44;11.90;;;5.93;;
32485;SDS011;18935;52.236;21.134;2022-08-19T12:36:11;10.80;;;5.45;;
32485;SDS011;18935;52.236;21.134;2022-08-19T12:38:38;15.48;;;6.13;;
32485;SDS011;18935;52.236;21.134;2022-08-19T12:41:04;12.52;;;6.13;;
32485;SDS011;18935;52.236;21.134;2022-08-19T12:43:31;10.15;;;5.82;;
32485;SDS011;18935;52.236;21.134;2022-08-19T12:45:56;17.73;;;6.35;;
32485;SDS011;18935;52.236;21.134;2022-08-19T12:48:22;14.52;;;5.90;;
32485;SDS011;18935;52.236;21.134;2022-08-19T12:50:48;11.75;;;5.88;;
32485;SDS011;18935;52.236;21.134;2022-08-19T12:53:13;10.30;;;6.03;;
32485;SDS011;18935;52.236;21.134;2022-08-19T12:55:41;8.60;;;5.68;;
32485;SDS011;18935;52.236;21.134;2022-08-19T12:58:09;11.20;;;5.43;;
32485;SDS011;18935;52.236;21.134;2022-08-19T13:00:35;10.80;;;5.13;;
32485;SDS011;18935;52.236;21.134;2022-08-19T13:03:00;13.05;;;5.35;;
32485;SDS011;18935;52.236;21.134;2022-08-19T13:05:27;12.82;;;5.38;;
32485;SDS011;18935;52.236;21.134;2022-08-19T13:07:55;9.43;;;5.00;;
32485;SDS011;18935;52.236;21.134;2022-08-19T13:10:22;14.93;;;5.30;;
32485;SDS011;18935;52.236;21.134;2022-08-19T13:12:52;10.88;;;6.22;;
32485;SDS011;18935;52.236;21.134;2022-08-19T13:15:19;13.13;;;5.28;;
32485;SDS011;18935;52.236;21.134;2022-08-19T13:17:47;15.50;;;5.55;;
32485;SDS011;18935;52.236;21.134;2022-08-19T13:20:14;11.50;;;5.65;;
32485;SDS011;18935;52.236;21.134;2022-08-19T13:22:42;11.95;;;5.25;;
32485;SDS011;18935;52.236;21.134;2022-08-19T13:25:09;18.85;;;6.40;;
32485;SDS011;18935;52.236;21.134;2022-08-19T13:27:36;20.85;;;5.68;;
32485;SDS011;18935;52.236;21.134;2022-08-19T13:30:03;11.88;;;5.30;;
32485;SDS011;18935;52.236;21.134;2022-08-19T13:32:47;14.68;;;5.10;;
32485;SDS011;18935;52.236;21.134;2022-08-19T13:35:31;14.23;;;5.75;;
32485;SDS011;18935;52.236;21.134;2022-08-19T13:37:57;19.30;;;5.93;;
32485;SDS011;18935;52.236;21.134;2022-08-19T13:40:23;15.23;;;5.38;;
32485;SDS011;18935;52.236;21.134;2022-08-19T13:42:52;14.70;;;5.40;;
32485;SDS011;18935;52.236;21.134;2022-08-19T13:45:20;14.70;;;5.55;;
32485;SDS011;18935;52.236;21.134;2022-08-19T13:47:51;22.02;;;5.57;;
32485;SDS011;18935;52.236;21.134;2022-08-19T13:50:20;14.15;;;5.30;;
32485;SDS011;18935;52.236;21.134;2022-08-19T13:52:47;16.83;;;5.10;;
32485;SDS011;18935;52.236;21.134;2022-08-19T13:55:14;10.75;;;5.78;;
32485;SDS011;18935;52.236;21.134;2022-08-19T13:57:40;18.88;;;5.65;;
32485;SDS011;18935;52.236;21.134;2022-08-19T14:00:08;9.23;;;5.28;;
32485;SDS011;18935;52.236;21.134;2022-08-19T14:02:39;11.73;;;5.30;;
32485;SDS011;18935;52.236;21.134;2022-08-19T14:05:08;21.92;;;5.50;;
32485;SDS011;18935;52.236;21.134;2022-08-19T14:07:36;13.25;;;5.82;;
32485;SDS011;18935;52.236;21.134;2022-08-19T14:10:05;13.52;;;5.13;;
32485;SDS011;18935;52.236;21.134;2022-08-19T14:12:33;15.23;;;5.15;;
32485;SDS011;18935;52.236;21.134;2022-08-19T14:14:58;11.90;;;5.00;;
32485;SDS011;18935;52.236;21.134;2022-08-19T14:17:24;12.05;;;5.18;;
32485;SDS011;18935;52.236;21.134;2022-08-19T14:19:55;13.35;;;5.20;;
32485;SDS011;18935;52.236;21.134;2022-08-19T14:22:21;13.93;;;4.90;;
32485;SDS011;18935;52.236;21.134;2022-08-19T14:24:47;15.27;;;5.07;;
32485;SDS011;18935;52.236;21.134;2022-08-19T14:27:12;11.02;;;5.47;;
32485;SDS011;18935;52.236;21.134;2022-08-19T14:29:38;12.90;;;4.93;;
32485;SDS011;18935;52.236;21.134;2022-08-19T14:32:06;11.73;;;5.47;;
32485;SDS011;18935;52.236;21.134;2022-08-19T14:34:31;9.87;;;5.43;;